Time;durP1;ratioP1;P1;durP2;ratioP2;P2;SDS_P1;SDS_P2;PMS_P1;PMS_P2;Temp;Humidity;BMP_temperature;BMP_pressure;BME280_temperature;BME280_humidity;BME280_pressure;Samples;Min_cycle;Max_cycle;Signal;HPM_P1;HPM_P2
2023/03/21 00:00:24;;;;;;;53.57;29.13;;;;;;;-145.18;100.00;46666.25;5032426;28;20270;-70
2023/03/21 00:02:50;;;;;;;49.70;30.50;;;;;;;-145.18;100.00;46668.22;5032258;28;20029;-70
2023/03/21 00:05:16;;;;;;;54.60;29.83;;;;;;;-145.18;100.00;46662.34;5032040;28;20446;-69
2023/03/21 00:07:41;;;;;;;46.03;29.43;;;;;;;-145.18;100.00;46666.25;5019863;28;20035;-70
2023/03/21 00:10:07;;;;;;;51.70;32.17;;;;;;;-145.18;100.00;46668.22;5029286;28;20037;-70
2023/03/21 00:12:36;;;;;;;55.33;30.53;;;;;;;-145.18;100.00;46664.31;5012505;28;20034;-69
2023/03/21 00:15:04;;;;;;;53.97;30.60;;;;;;;-145.18;100.00;46670.16;4994914;28;20080;-70
2023/03/21 00:17:31;;;;;;;52.33;30.70;;;;;;;-145.18;100.00;46664.31;5012257;28;20780;-70
2023/03/21 00:19:59;;;;;;;53.90;31.63;;;;;;;-145.18;100.00;46666.25;5012265;28;20271;-70
2023/03/21 00:22:26;;;;;;;53.47;30.23;;;;;;;-145.18;100.00;46668.22;5012237;28;20268;-70
2023/03/21 00:24:53;;;;;;;56.60;29.83;;;;;;;-145.18;100.00;46670.16;5012609;28;20695;-70
2023/03/21 00:27:18;;;;;;;53.80;29.87;;;;;;;-145.18;100.00;46670.16;5012296;28;20695;-70
2023/03/21 00:29:48;;;;;;;50.53;29.83;;;;;;;-145.18;100.00;46664.31;5012354;28;20271;-70
2023/03/21 00:32:14;;;;;;;53.97;30.17;;;;;;;-145.18;100.00;46672.13;5010402;28;20122;-70
2023/03/21 00:34:41;;;;;;;53.93;31.07;;;;;;;-145.18;100.00;46668.22;5012269;28;20291;-70
2023/03/21 00:37:07;;;;;;;60.63;31.23;;;;;;;-145.18;100.00;46672.13;5027479;28;20691;-70
2023/03/21 00:39:34;;;;;;;54.20;29.13;;;;;;;-145.18;100.00;46668.22;5016254;28;20277;-70
2023/03/21 00:41:59;;;;;;;58.07;30.77;;;;;;;-145.18;100.00;46670.16;5014608;28;20374;-70
2023/03/21 00:44:25;;;;;;;60.60;30.53;;;;;;;-145.18;100.00;46664.31;5012017;28;20379;-70
2023/03/21 00:46:51;;;;;;;55.17;30.47;;;;;;;-145.18;100.00;46664.31;5026425;28;20096;-70
2023/03/21 00:49:17;;;;;;;55.53;30.23;;;;;;;-145.18;100.00;46664.31;5021064;28;20052;-70
2023/03/21 00:51:43;;;;;;;52.10;30.87;;;;;;;-145.18;100.00;46668.22;5016742;28;20389;-70
2023/03/21 00:54:10;;;;;;;54.53;29.77;;;;;;;-145.18;100.00;46670.16;5030468;28;20107;-70
2023/03/21 00:56:36;;;;;;;51.57;30.63;;;;;;;-145.18;100.00;46670.16;5018345;28;20631;-70
2023/03/21 00:59:01;;;;;;;54.63;29.30;;;;;;;-145.18;100.00;46666.25;5011410;28;20294;-70
2023/03/21 01:01:30;;;;;;;55.47;30.13;;;;;;;-145.18;100.00;46672.13;5011480;28;20510;-70
2023/03/21 01:04:02;;;;;;;57.93;30.40;;;;;;;-145.18;100.00;46666.25;5011327;28;20100;-73
2023/03/21 01:06:28;;;;;;;56.23;30.57;;;;;;;-145.18;100.00;46670.16;5021878;28;20290;-70
2023/03/21 01:08:53;;;;;;;47.93;30.23;;;;;;;-145.18;100.00;46672.13;5016347;28;20286;-70
2023/03/21 01:11:22;;;;;;;53.17;29.97;;;;;;;-145.18;100.00;46666.25;5011472;28;20022;-70
2023/03/21 01:13:48;;;;;;;47.37;29.40;;;;;;;-145.18;100.00;46664.31;5011780;28;20117;-70
2023/03/21 01:16:13;;;;;;;53.27;30.73;;;;;;;-145.18;100.00;46666.25;5010840;28;20431;-70
2023/03/21 01:18:40;;;;;;;57.17;29.27;;;;;;;-145.18;100.00;46672.13;5011430;28;20145;-70
2023/03/21 01:21:12;;;;;;;57.00;29.30;;;;;;;-145.18;100.00;46670.16;5011008;28;20030;-70
2023/03/21 01:23:38;;;;;;;54.17;27.03;;;;;;;-145.18;100.00;46666.25;5011215;28;20278;-70
2023/03/21 01:26:04;;;;;;;52.83;28.13;;;;;;;-145.18;100.00;46666.25;5010871;28;20268;-70
2023/03/21 01:28:30;;;;;;;58.00;29.03;;;;;;;-145.18;100.00;46664.31;5011264;28;20597;-70
2023/03/21 01:30:56;;;;;;;46.13;25.43;;;;;;;-145.18;100.00;46672.13;5019659;28;20125;-70
2023/03/21 01:33:22;;;;;;;42.30;26.57;;;;;;;-145.18;100.00;46670.16;5030715;28;20033;-70
2023/03/21 01:35:48;;;;;;;48.87;25.20;;;;;;;-145.18;100.00;46666.25;5030519;28;20120;-70
2023/03/21 01:38:13;;;;;;;48.10;24.17;;;;;;;-145.18;100.00;46672.13;5021956;28;20886;-70
2023/03/21 01:40:40;;;;;;;36.53;23.30;;;;;;;-145.18;100.00;46668.22;5011058;28;20038;-71
2023/03/21 01:43:20;;;;;;;39.83;23.23;;;;;;;-145.18;100.00;46668.22;5010513;28;20026;-71
2023/03/21 01:46:22;;;;;;;39.80;21.63;;;;;;;-145.18;100.00;46674.06;5014691;28;20270;-70
2023/03/21 01:48:57;;;;;;;37.80;21.27;;;;;;;-145.18;100.00;46676.03;5030497;28;20313;-70
2023/03/21 01:51:26;;;;;;;41.42;21.88;;;;;;;-145.18;100.00;46672.13;5030468;28;20262;-71
2023/03/21 01:53:52;;;;;;;37.10;20.80;;;;;;;-145.18;100.00;46672.13;5030577;28;20207;-70
2023/03/21 01:56:30;;;;;;;42.40;22.00;;;;;;;-145.18;100.00;46676.03;5012224;28;20802;-71
2023/03/21 01:59:04;;;;;;;33.40;20.13;;;;;;;-145.18;100.00;46679.94;5030146;28;20030;-71
2023/03/21 02:01:30;;;;;;;37.67;22.63;;;;;;;-145.18;100.00;46672.13;5101010;23;20634;-90
2023/03/21 02:03:56;;;;;;;42.93;23.33;;;;;;;-145.18;100.00;46677.97;5009378;23;20307;-71
2023/03/21 02:06:45;;;;;;;42.87;22.87;;;;;;;-145.18;100.00;46672.13;5028371;28;20290;-71
2023/03/21 02:09:17;;;;;;;42.03;23.60;;;;;;;-145.18;100.00;46677.97;5030281;28;20266;-71
2023/03/21 02:11:45;;;;;;;44.27;23.23;;;;;;;-145.18;100.00;46681.88;5025798;28;20270;-72
2023/03/21 02:14:14;;;;;;;42.53;24.13;;;;;;;-145.18;100.00;46672.13;5010680;28;20342;-71
2023/03/21 02:16:45;;;;;;;46.80;23.93;;;;;;;-145.18;100.00;46674.06;5010423;28;20382;-72
2023/03/21 02:19:22;;;;;;;43.27;25.60;;;;;;;-145.18;100.00;46676.03;5010606;28;20386;-71
2023/03/21 02:22:22;;;;;;;48.97;25.20;;;;;;;-145.18;100.00;46676.03;5010443;28;20326;-72
2023/03/21 02:25:19;;;;;;;50.63;25.90;;;;;;;-145.18;100.00;46677.97;4992807;28;20836;-72
2023/03/21 02:27:51;;;;;;;43.22;24.27;;;;;;;-145.18;100.00;46681.88;5010422;28;20042;-72
2023/03/21 02:30:32;;;;;;;48.50;24.70;;;;;;;-145.18;100.00;46672.13;5012009;28;20470;-72
2023/03/21 02:33:35;;;;;;;46.20;23.73;;;;;;;-145.18;100.00;46681.88;5018196;28;20302;-73
2023/03/21 02:36:06;;;;;;;49.30;23.67;;;;;;;-145.18;100.00;46677.97;5004380;28;20640;-74
2023/03/21 02:38:42;;;;;;;42.97;22.77;;;;;;;-145.18;100.00;46674.06;5010357;28;20683;-74
2023/03/21 02:41:28;;;;;;;43.35;22.50;;;;;;;-145.18;100.00;46677.97;5010458;28;20766;-74
2023/03/21 02:43:58;;;;;;;40.17;22.00;;;;;;;-145.18;100.00;46677.97;5010283;28;20037;-73
2023/03/21 02:46:43;;;;;;;47.03;23.00;;;;;;;-145.18;100.00;46676.03;5010846;28;20322;-73
2023/03/21 02:49:15;;;;;;;44.88;22.55;;;;;;;-145.18;100.00;46677.97;5014309;28;20275;-73
2023/03/21 02:51:43;;;;;;;44.93;22.87;;;;;;;-145.18;100.00;46677.97;5026323;28;20552;-74
2023/03/21 02:54:14;;;;;;;38.10;21.00;;;;;;;-145.18;100.00;46674.06;5020988;28;20358;-73
2023/03/21 02:56:41;;;;;;;41.77;21.13;;;;;;;-145.18;100.00;46672.13;5009907;28;20280;-74
2023/03/21 02:59:08;;;;;;;46.37;21.73;;;;;;;-145.18;100.00;46679.94;4992714;28;20279;-73
2023/03/21 03:01:34;;;;;;;48.00;21.77;;;;;;;-145.18;100.00;46677.97;5020647;28;20628;-73
2023/03/21 03:03:59;;;;;;;39.80;22.47;;;;;;;-145.18;100.00;46679.94;5009939;28;20295;-73
2023/03/21 03:06:50;;;;;;;42.27;21.87;;;;;;;-145.18;100.00;46674.06;5010286;28;20329;-73
2023/03/21 03:09:43;;;;;;;46.27;21.77;;;;;;;-145.18;100.00;46681.88;4997394;28;20039;-73
2023/03/21 03:12:19;;;;;;;46.93;21.90;;;;;;;-145.18;100.00;46674.06;4990329;28;20264;-73
2023/03/21 03:14:57;;;;;;;42.00;22.83;;;;;;;-145.18;100.00;46679.94;4990429;28;20256;-73
2023/03/21 03:17:49;;;;;;;42.67;22.23;;;;;;;-145.18;100.00;46677.97;4990209;28;20844;-73
2023/03/21 03:21:07;;;;;;;49.77;22.40;;;;;;;-145.18;100.00;46677.97;4988752;28;20346;-73
2023/03/21 03:23:45;;;;;;;47.53;22.10;;;;;;;-145.18;100.00;46674.06;4969951;28;20379;-73
2023/03/21 03:26:12;;;;;;;36.07;22.10;;;;;;;-145.18;100.00;46676.03;5013957;28;20271;-73
2023/03/21 03:28:43;;;;;;;37.77;21.50;;;;;;;-145.18;100.00;46668.22;5004888;28;20320;-73
2023/03/21 03:31:13;;;;;;;45.80;21.50;;;;;;;-145.18;100.00;46681.88;4994123;28;20272;-73
2023/03/21 03:33:43;;;;;;;44.40;22.40;;;;;;;-145.18;100.00;46679.94;4993811;28;20632;-73
2023/03/21 03:36:12;;;;;;;39.80;20.07;;;;;;;-145.18;100.00;46681.88;4994043;28;20269;-73
2023/03/21 03:38:40;;;;;;;38.57;20.23;;;;;;;-145.18;100.00;46679.94;4993737;28;20295;-73
2023/03/21 03:41:20;;;;;;;39.57;19.67;;;;;;;-145.18;100.00;46679.94;4994188;28;20354;-73
2023/03/21 03:43:49;;;;;;;38.33;19.53;;;;;;;-145.18;100.00;46677.97;4993892;28;20308;-73
2023/03/21 03:46:30;;;;;;;35.43;17.77;;;;;;;-145.18;100.00;46672.13;4993634;28;20627;-73
2023/03/21 03:49:06;;;;;;;32.37;17.27;;;;;;;-145.18;100.00;46683.84;5005937;28;20639;-73
2023/03/21 03:51:41;;;;;;;;;;;;;;;-145.18;100.00;46679.94;5014000;28;20264;-73
2023/03/21 03:54:12;;;;;;;31.40;16.70;;;;;;;-145.18;100.00;46681.88;5013069;28;19924;-73
2023/03/21 03:56:38;;;;;;;30.80;15.40;;;;;;;-145.18;100.00;46679.94;4995302;28;20271;-73
2023/03/21 03:59:04;;;;;;;31.30;15.40;;;;;;;-145.18;100.00;46683.84;4999298;28;20299;-73
2023/03/21 04:01:29;;;;;;;35.40;16.77;;;;;;;-145.18;100.00;46676.03;4985337;28;20830;-73
2023/03/21 04:03:55;;;;;;;40.67;17.87;;;;;;;-145.18;100.00;46683.84;5012481;28;20056;-73
2023/03/21 04:06:21;;;;;;;27.53;15.77;;;;;;;-145.18;100.00;46683.84;5013426;28;20382;-73
2023/03/21 04:08:47;;;;;;;35.80;16.47;;;;;;;-145.18;100.00;46677.97;4981111;28;20117;-73
2023/03/21 04:11:14;;;;;;;32.23;16.13;;;;;;;-145.18;100.00;46683.84;5010529;28;20030;-73
2023/03/21 04:13:41;;;;;;;31.47;15.10;;;;;;;-145.18;100.00;46683.84;5006273;28;20030;-73
2023/03/21 04:16:07;;;;;;;33.87;16.03;;;;;;;-145.18;100.00;46679.94;4993466;28;20272;-73
2023/03/21 04:18:32;;;;;;;29.40;15.27;;;;;;;-145.18;100.00;46679.94;4992933;28;20419;-73
2023/03/21 04:20:58;;;;;;;32.77;15.80;;;;;;;-145.18;100.00;46683.84;5007831;28;20354;-73
2023/03/21 04:23:23;;;;;;;31.03;14.63;;;;;;;-145.18;100.00;46681.88;5012620;28;20144;-72
2023/03/21 04:25:49;;;;;;;28.87;15.10;;;;;;;-145.18;100.00;46679.94;5012475;28;20073;-73
2023/03/21 04:28:15;;;;;;;30.90;15.77;;;;;;;-145.18;100.00;46691.66;5012277;28;20041;-73
2023/03/21 04:30:40;;;;;;;24.93;14.17;;;;;;;-145.18;100.00;46685.78;5012337;28;20026;-73
2023/03/21 04:33:06;;;;;;;29.60;14.47;;;;;;;-145.18;100.00;46693.59;5012398;28;20497;-73
2023/03/21 04:35:33;;;;;;;33.53;14.27;;;;;;;-145.18;100.00;46689.69;5012161;28;20478;-73
2023/03/21 04:37:58;;;;;;;26.50;14.07;;;;;;;-145.18;100.00;46679.94;5011704;28;20073;-73
2023/03/21 04:40:24;;;;;;;28.40;13.73;;;;;;;-145.18;100.00;46693.59;4995004;28;20271;-73
2023/03/21 04:42:49;;;;;;;25.70;13.37;;;;;;;-145.18;100.00;46677.97;5012245;28;20515;-73
2023/03/21 04:45:16;;;;;;;28.30;13.37;;;;;;;-145.18;100.00;46685.78;5012150;28;20034;-73
2023/03/21 04:47:41;;;;;;;27.43;13.13;;;;;;;-145.18;100.00;46683.84;4992694;28;20162;-73
2023/03/21 04:50:08;;;;;;;24.60;13.63;;;;;;;-145.18;100.00;46687.75;4992959;28;20777;-73
2023/03/21 04:52:33;;;;;;;29.70;14.00;;;;;;;-145.18;100.00;46683.84;4992133;28;20030;-73
2023/03/21 04:54:59;;;;;;;23.77;13.03;;;;;;;-145.18;100.00;46687.75;4992350;28;20400;-73
2023/03/21 04:57:25;;;;;;;29.70;13.50;;;;;;;-145.18;100.00;46685.78;4992538;28;20462;-73
2023/03/21 04:59:51;;;;;;;25.87;13.17;;;;;;;-145.18;100.00;46679.94;4992292;28;21038;-73
2023/03/21 05:02:16;;;;;;;28.93;14.33;;;;;;;-145.18;100.00;46687.75;4992068;28;20295;-73
2023/03/21 05:04:42;;;;;;;28.43;13.23;;;;;;;-145.18;100.00;46691.66;5006968;28;20101;-73
2023/03/21 05:07:07;;;;;;;20.80;12.30;;;;;;;-145.18;100.00;46691.66;5011592;28;20521;-73
2023/03/21 05:09:33;;;;;;;30.30;12.73;;;;;;;-145.18;100.00;46701.41;5004801;28;20399;-74
2023/03/21 05:11:58;;;;;;;28.53;12.93;;;;;;;-145.18;100.00;46683.84;5009760;28;20038;-73
2023/03/21 05:14:25;;;;;;;27.13;12.77;;;;;;;-145.18;100.00;46681.88;5011437;28;20681;-73
2023/03/21 05:16:55;;;;;;;26.70;12.33;;;;;;;-145.18;100.00;46687.75;4994014;28;20026;-74
2023/03/21 05:19:33;;;;;;;23.43;12.60;;;;;;;-145.18;100.00;46689.69;5010592;28;20286;-73
2023/03/21 05:22:03;;;;;;;24.93;13.20;;;;;;;-145.18;100.00;46693.59;4996578;28;20637;-73
2023/03/21 05:24:30;;;;;;;24.07;12.63;;;;;;;-145.18;100.00;46697.50;5001406;28;20287;-73
2023/03/21 05:27:00;;;;;;;30.60;13.13;;;;;;;-145.18;100.00;46695.56;5002535;28;20286;-73
2023/03/21 05:29:27;;;;;;;22.47;11.10;;;;;;;-145.18;100.00;46687.75;5000647;28;20287;-73
2023/03/21 05:31:52;;;;;;;28.67;12.57;;;;;;;-145.18;100.00;46687.75;4998533;28;20298;-73
2023/03/21 05:34:17;;;;;;;34.00;12.70;;;;;;;-145.18;100.00;46689.69;5007740;28;20279;-73
2023/03/21 05:36:43;;;;;;;31.97;10.80;;;;;;;-145.18;100.00;46705.31;5001693;28;20109;-73
2023/03/21 05:39:08;;;;;;;24.27;12.93;;;;;;;-145.18;100.00;46699.47;5001880;28;20045;-73
2023/03/21 05:41:34;;;;;;;22.47;10.93;;;;;;;-145.18;100.00;46699.47;4999009;28;20061;-73
2023/03/21 05:43:59;;;;;;;24.67;11.70;;;;;;;-145.18;100.00;46685.78;5001192;28;20085;-73
2023/03/21 05:46:25;;;;;;;26.87;12.00;;;;;;;-145.18;100.00;46697.50;4998996;28;20021;-73
2023/03/21 05:48:51;;;;;;;26.67;11.63;;;;;;;-145.18;100.00;46699.47;4998473;28;20026;-73
2023/03/21 05:51:17;;;;;;;24.67;11.37;;;;;;;-145.18;100.00;46687.75;4998885;28;20037;-73
2023/03/21 05:53:42;;;;;;;32.43;11.47;;;;;;;-145.18;100.00;46703.38;4994437;28;20038;-73
2023/03/21 05:56:08;;;;;;;22.13;11.27;;;;;;;-145.18;100.00;46701.41;4994300;28;20298;-72
2023/03/21 05:58:34;;;;;;;26.47;12.13;;;;;;;-145.18;100.00;46697.50;5010022;28;20038;-72
2023/03/21 06:00:59;;;;;;;25.23;11.20;;;;;;;-145.18;100.00;46701.41;5011013;28;20279;-72
2023/03/21 06:03:24;;;;;;;29.57;11.40;;;;;;;-145.18;100.00;46699.47;4992797;28;20153;-72
2023/03/21 06:05:50;;;;;;;27.57;11.60;;;;;;;-145.18;100.00;46695.56;5010423;28;20622;-73
2023/03/21 06:08:15;;;;;;;27.77;11.50;;;;;;;-145.18;100.00;46705.31;4993448;28;20125;-73
2023/03/21 06:10:40;;;;;;;29.47;10.60;;;;;;;-145.18;100.00;46691.66;4997933;28;20041;-74
2023/03/21 06:13:06;;;;;;;23.43;10.23;;;;;;;-145.18;100.00;46699.47;5008865;28;20046;-74
2023/03/21 06:15:31;;;;;;;24.93;10.77;;;;;;;-145.18;100.00;46707.28;4997774;28;20572;-73
2023/03/21 06:17:57;;;;;;;22.17;10.03;;;;;;;-145.18;100.00;46707.28;5002112;28;20034;-73
2023/03/21 06:20:22;;;;;;;24.27;10.30;;;;;;;-145.18;100.00;46697.50;4993253;28;20460;-73
2023/03/21 06:22:47;;;;;;;25.37;9.83;;;;;;;-145.18;100.00;46701.41;4994833;28;20038;-74
2023/03/21 06:25:13;;;;;;;22.73;10.10;;;;;;;-145.18;100.00;46707.28;4990686;28;20121;-73
2023/03/21 06:27:38;;;;;;;18.47;10.43;;;;;;;-145.18;100.00;46707.28;5002375;28;20494;-74
2023/03/21 06:30:05;;;;;;;20.80;9.57;;;;;;;-145.18;100.00;46709.22;5002335;28;20614;-73
2023/03/21 06:32:30;;;;;;;22.10;8.77;;;;;;;-145.18;100.00;46705.31;4998681;28;20042;-73
2023/03/21 06:34:56;;;;;;;18.90;9.27;;;;;;;-145.18;100.00;46709.22;5002964;28;20283;-74
2023/03/21 06:37:21;;;;;;;20.70;9.17;;;;;;;-145.18;100.00;46711.19;4997962;28;20113;-77
2023/03/21 06:39:47;;;;;;;26.43;8.40;;;;;;;-145.18;100.00;46709.22;4997446;28;20057;-77
2023/03/21 06:42:13;;;;;;;23.57;8.43;;;;;;;-145.18;100.00;46711.19;4997807;28;20052;-74
2023/03/21 06:44:39;;;;;;;22.67;8.80;;;;;;;-145.18;100.00;46711.19;4998458;28;20033;-74
2023/03/21 06:47:04;;;;;;;19.50;8.93;;;;;;;-145.18;100.00;46713.13;4999277;28;20045;-74
2023/03/21 06:49:30;;;;;;;24.17;8.57;;;;;;;-145.18;100.00;46709.22;4988590;28;20045;-75
2023/03/21 06:51:55;;;;;;;22.07;8.47;;;;;;;-145.18;100.00;46709.22;4998121;28;20046;-77
2023/03/21 06:54:21;;;;;;;22.60;9.30;;;;;;;-145.18;100.00;46709.22;5002577;28;20096;-77
2023/03/21 06:56:46;;;;;;;26.40;8.87;;;;;;;-145.18;100.00;46715.09;5000595;28;20034;-78
2023/03/21 06:59:12;;;;;;;23.67;8.77;;;;;;;-145.18;100.00;46709.22;4999231;28;20593;-77
2023/03/21 07:01:38;;;;;;;24.93;8.40;;;;;;;-145.18;100.00;46711.19;4987085;28;20626;-77
2023/03/21 07:04:05;;;;;;;19.03;9.07;;;;;;;-145.18;100.00;46705.31;4997982;28;20046;-77
2023/03/21 07:06:30;;;;;;;21.40;8.43;;;;;;;-145.18;100.00;46709.22;4995036;28;20075;-77
2023/03/21 07:08:55;;;;;;;22.50;8.73;;;;;;;-145.18;100.00;46709.22;5007013;28;20640;-77
2023/03/21 07:11:21;;;;;;;28.07;9.77;;;;;;;-145.18;100.00;46709.22;5014010;28;20105;-77
2023/03/21 07:13:48;;;;;;;25.13;9.63;;;;;;;-145.18;100.00;46713.13;5012891;28;20041;-77
2023/03/21 07:16:18;;;;;;;19.70;9.73;;;;;;;-145.18;100.00;46715.09;5012897;28;20267;-78
2023/03/21 07:18:43;;;;;;;25.77;9.50;;;;;;;-145.18;100.00;46707.28;5012258;28;20038;-78
2023/03/21 07:21:09;;;;;;;26.70;10.33;;;;;;;-145.18;100.00;46711.19;5009893;28;20275;-78
2023/03/21 07:23:37;;;;;;;20.07;8.60;;;;;;;-145.18;100.00;46713.13;5004537;28;20080;-77
2023/03/21 07:26:03;;;;;;;23.40;8.50;;;;;;;-145.18;100.00;46713.13;4993624;28;20263;-77
2023/03/21 07:28:30;;;;;;;21.73;8.43;;;;;;;-145.18;100.00;46711.19;4995321;28;20935;-78
2023/03/21 07:31:05;;;;;;;22.20;8.87;;;;;;;-145.18;100.00;46711.19;5012313;28;20764;-77
2023/03/21 07:33:32;;;;;;;19.17;8.35;;;;;;;-145.18;100.00;46709.22;5012714;28;20329;-77
2023/03/21 07:35:58;;;;;;;21.93;7.90;;;;;;;-145.18;100.00;46713.13;5011759;28;20041;-77
2023/03/21 07:38:24;;;;;;;22.30;7.37;;;;;;;-145.18;100.00;46711.19;5007704;28;20307;-77
2023/03/21 07:40:49;;;;;;;23.40;8.17;;;;;;;-145.18;100.00;46711.19;5012849;28;20293;-78
2023/03/21 07:43:16;;;;;;;15.03;6.93;;;;;;;-145.18;100.00;46711.19;5013123;28;20053;-77
2023/03/21 07:45:42;;;;;;;18.50;7.97;;;;;;;-145.18;100.00;46709.22;5009056;28;20541;-77
2023/03/21 07:48:11;;;;;;;23.20;7.40;;;;;;;-145.18;100.00;46709.22;5012139;28;20341;-78
2023/03/21 07:50:37;;;;;;;19.67;7.00;;;;;;;-145.18;100.00;46711.19;5012709;28;20275;-78
2023/03/21 07:53:03;;;;;;;20.20;7.00;;;;;;;-145.18;100.00;46707.28;5010564;28;20774;-78
2023/03/21 07:55:28;;;;;;;12.47;6.37;;;;;;;-145.18;100.00;46713.13;4996510;28;20280;-77
2023/03/21 07:57:53;;;;;;;20.23;7.40;;;;;;;-145.18;100.00;46707.28;5007666;28;20113;-77
2023/03/21 08:00:22;;;;;;;17.50;6.40;;;;;;;-145.18;100.00;46711.19;5012682;28;20034;-77
2023/03/21 08:02:53;;;;;;;18.77;6.20;;;;;;;-145.18;100.00;46707.28;5012129;28;20087;-78
2023/03/21 08:05:26;;;;;;;14.00;6.77;;;;;;;-145.18;100.00;46707.28;5012099;28;20354;-78
2023/03/21 08:07:51;;;;;;;15.63;7.17;;;;;;;-145.18;100.00;46707.28;5012332;28;20275;-78
2023/03/21 08:10:17;;;;;;;17.63;6.67;;;;;;;-145.18;100.00;46703.38;4994625;28;20034;-77
2023/03/21 08:12:44;;;;;;;17.47;7.00;;;;;;;-145.18;100.00;46705.31;5012348;28;20026;-77
2023/03/21 08:15:10;;;;;;;20.47;7.10;;;;;;;-145.18;100.00;46699.47;5012077;28;20038;-78
2023/03/21 08:17:36;;;;;;;24.13;7.97;;;;;;;-145.18;100.00;46699.47;5005654;28;20058;-77
2023/03/21 08:20:06;;;;;;;16.97;6.97;;;;;;;-145.18;100.00;46701.41;5002404;28;20117;-78
2023/03/21 08:22:31;;;;;;;18.63;7.97;;;;;;;-145.18;100.00;46699.47;4993012;28;20045;-78
2023/03/21 08:24:57;;;;;;;22.93;7.83;;;;;;;-145.18;100.00;46697.50;5002844;28;20482;-78
2023/03/21 08:27:22;;;;;;;18.87;8.40;;;;;;;-145.18;100.00;46701.41;5012565;28;20069;-78
2023/03/21 08:29:47;;;;;;;24.17;8.73;;;;;;;-145.18;100.00;46695.56;4988803;28;20034;-79
2023/03/21 08:32:13;;;;;;;26.00;8.93;;;;;;;-145.18;100.00;46699.47;4995723;28;20038;-78
2023/03/21 08:34:38;;;;;;;19.57;8.00;;;;;;;-145.18;100.00;46695.56;4994487;28;20453;-78
2023/03/21 08:37:04;;;;;;;21.50;8.53;;;;;;;-145.18;100.00;46695.56;5011887;28;20030;-77
2023/03/21 08:39:29;;;;;;;21.83;8.70;;;;;;;-145.18;100.00;46699.47;5011646;28;20509;-78
2023/03/21 08:41:54;;;;;;;17.73;8.93;;;;;;;-145.18;100.00;46691.66;5011986;28;20034;-78
2023/03/21 08:44:20;;;;;;;21.10;9.23;;;;;;;-145.18;100.00;46693.59;5005019;28;20026;-78
2023/03/21 08:46:46;;;;;;;20.17;9.93;;;;;;;-145.18;100.00;46697.50;5009743;28;20033;-78
2023/03/21 08:49:11;;;;;;;19.60;9.13;;;;;;;-145.18;100.00;46693.59;5010668;28;20462;-79
2023/03/21 08:51:37;;;;;;;25.10;9.57;;;;;;;-145.18;100.00;46695.56;4992485;28;20022;-78
2023/03/21 08:54:02;;;;;;;24.50;9.17;;;;;;;-145.18;100.00;46693.59;4995223;28;20033;-78
2023/03/21 08:56:28;;;;;;;19.27;9.00;;;;;;;-145.18;100.00;46693.59;5011812;28;20040;-78
2023/03/21 08:58:53;;;;;;;20.80;9.20;;;;;;;-145.18;100.00;46695.56;4993256;28;20042;-78
2023/03/21 09:01:18;;;;;;;25.07;9.53;;;;;;;-145.18;100.00;46695.56;5007135;28;20042;-78
2023/03/21 09:03:44;;;;;;;23.70;10.00;;;;;;;-145.18;100.00;46691.66;5003934;28;20129;-78
2023/03/21 09:06:13;;;;;;;22.70;8.80;;;;;;;-145.18;100.00;46691.66;5007934;28;20652;-78
2023/03/21 09:08:40;;;;;;;20.77;8.90;;;;;;;-145.18;100.00;46695.56;5008503;28;20506;-78
2023/03/21 09:11:06;;;;;;;20.27;8.10;;;;;;;-145.18;100.00;46697.50;5011309;28;20390;-78
2023/03/21 09:13:32;;;;;;;17.10;7.97;;;;;;;-145.18;100.00;46699.47;5011527;28;20556;-78
2023/03/21 09:16:00;;;;;;;20.47;8.70;;;;;;;-145.18;100.00;46697.50;5010151;28;20113;-79
2023/03/21 09:18:43;;;;;;;18.73;7.90;;;;;;;-145.18;100.00;46693.59;4996177;28;20494;-78
2023/03/21 09:21:13;;;;;;;22.83;8.27;;;;;;;-145.18;100.00;46697.50;5010190;28;20045;-78
2023/03/21 09:23:43;;;;;;;18.37;8.10;;;;;;;-145.18;100.00;46701.41;5011208;28;20657;-78
2023/03/21 09:26:10;;;;;;;17.47;7.33;;;;;;;-145.18;100.00;46703.38;5010143;28;20052;-77
2023/03/21 09:28:39;;;;;;;24.43;8.80;;;;;;;-145.18;100.00;46701.41;5011263;28;20021;-77
2023/03/21 09:31:07;;;;;;;19.97;7.43;;;;;;;-145.18;100.00;46701.41;4977194;28;20172;-77
2023/03/21 09:33:34;;;;;;;16.83;8.57;;;;;;;-145.18;100.00;46703.38;4991316;28;20109;-78
2023/03/21 09:36:00;;;;;;;20.37;9.40;;;;;;;-145.18;100.00;46699.47;4991294;28;20525;-78
2023/03/21 09:38:36;;;;;;;20.70;7.30;;;;;;;-145.18;100.00;46699.47;4973830;28;20070;-77
2023/03/21 09:41:23;;;;;;;16.30;7.60;;;;;;;-145.18;100.00;46697.50;4991119;28;20177;-77
2023/03/21 09:44:18;;;;;;;12.13;7.10;;;;;;;-145.18;100.00;46689.69;4990887;28;20026;-77
2023/03/21 09:46:50;;;;;;;13.77;7.43;;;;;;;-145.18;100.00;46672.13;4991394;28;20534;-77
2023/03/21 09:49:29;;;;;;;18.80;7.63;;;;;;;-145.18;100.00;46662.34;4991284;28;20379;-77
2023/03/21 09:51:57;;;;;;;19.53;7.60;;;;;;;-145.18;100.00;46642.81;5010809;28;20034;-77
2023/03/21 09:54:29;;;;;;;14.87;8.47;;;;;;;-145.18;100.00;46625.22;4991813;28;20393;-77
2023/03/21 09:57:00;;;;;;;13.57;8.00;;;;;;;-145.18;100.00;46609.59;4990893;28;20511;-77
2023/03/21 09:59:36;;;;;;;14.90;6.80;;;;;;;-145.18;100.00;46590.06;4991012;28;20065;-77
2023/03/21 10:02:12;;;;;;;17.40;7.50;;;;;;;-145.18;100.00;46582.25;4990843;28;20034;-78
2023/03/21 10:04:37;;;;;;;17.38;7.93;;;;;;;-145.18;100.00;46584.22;4990759;28;20046;-77
2023/03/21 10:07:03;;;;;;;16.93;7.07;;;;;;;-145.18;100.00;46586.16;4990714;28;20048;-77
2023/03/21 10:09:31;;;;;;;15.90;7.50;;;;;;;-145.18;100.00;46584.22;4990840;28;20033;-77
2023/03/21 10:12:13;;;;;;;15.83;7.67;;;;;;;-145.18;100.00;46578.34;4990579;28;20077;-77
2023/03/21 10:14:49;;;;;;;15.23;7.93;;;;;;;-145.18;100.00;46584.22;4990948;28;20360;-77
2023/03/21 10:17:39;;;;;;;;;;;;;;;-145.18;100.00;46576.41;4973669;28;20529;-77
2023/03/21 10:20:12;;;;;;;13.20;7.30;;;;;;;-145.18;100.00;46580.31;4990867;28;20358;-77
2023/03/21 10:22:37;;;;;;;16.77;7.00;;;;;;;-145.18;100.00;46586.16;4990904;28;20112;-77
2023/03/21 10:25:05;;;;;;;21.33;7.13;;;;;;;-145.18;100.00;46582.25;4990361;28;20054;-77
2023/03/21 10:27:33;;;;;;;17.70;7.23;;;;;;;-145.18;100.00;46576.41;4990202;28;20483;-78
2023/03/21 10:29:59;;;;;;;19.23;8.20;;;;;;;-145.18;100.00;46578.34;4990206;28;20113;-78
2023/03/21 10:32:25;;;;;;;18.07;7.17;;;;;;;-145.18;100.00;46578.34;4979999;28;20084;-77
2023/03/21 10:34:57;;;;;;;18.17;7.37;;;;;;;-145.18;100.00;46584.22;4997578;28;20061;-78
2023/03/21 10:37:23;;;;;;;17.17;6.80;;;;;;;-145.18;100.00;46588.13;4988461;28;20376;-77
2023/03/21 10:39:52;;;;;;;11.20;6.73;;;;;;;-145.18;100.00;46599.84;4997969;28;20041;-77
2023/03/21 10:42:23;;;;;;;15.10;6.10;;;;;;;-145.18;100.00;46603.75;4999476;28;20046;-77
2023/03/21 10:44:51;;;;;;;13.83;6.93;;;;;;;-145.18;100.00;46592.03;4997945;28;20033;-78
2023/03/21 10:47:25;;;;;;;14.33;7.03;;;;;;;-145.18;100.00;46615.47;4998203;28;20076;-77
2023/03/21 10:49:50;;;;;;;19.07;6.13;;;;;;;-145.18;100.00;46601.78;4998219;28;20034;-77
2023/03/21 10:52:22;;;;;;;16.03;6.30;;;;;;;-145.18;100.00;46607.66;4999831;28;20037;-78
2023/03/21 10:54:48;;;;;;;16.60;6.23;;;;;;;-145.18;100.00;46607.66;4980953;28;20030;-77
2023/03/21 10:57:21;;;;;;;15.70;6.53;;;;;;;-145.18;100.00;46619.38;4997397;28;20026;-77
2023/03/21 10:59:59;;;;;;;14.47;6.03;;;;;;;-145.18;100.00;46603.75;4999785;28;20117;-77
2023/03/21 11:02:27;;;;;;;17.13;5.53;;;;;;;-145.18;100.00;46619.38;5000576;28;20025;-78
2023/03/21 11:04:54;;;;;;;10.87;5.47;;;;;;;-145.18;100.00;46617.41;4996580;28;20064;-77